createdAt,value
2019-02-27T00:00:15.336Z,6.10
2019-02-27T00:02:47.201Z,6.10
2019-02-27T00:05:17.295Z,6.10
2019-02-27T00:07:47.505Z,6.10
2019-02-27T00:10:17.777Z,6.10
2019-02-27T00:12:51.739Z,6.10
2019-02-27T00:15:21.286Z,6.10
2019-02-27T00:17:52.120Z,6.00
2019-02-27T00:20:23.065Z,6.10
2019-02-27T00:22:53.201Z,6.00
2019-02-27T00:25:23.312Z,6.00
2019-02-27T00:27:53.715Z,6.00
2019-02-27T00:30:23.935Z,6.00
2019-02-27T00:32:54.058Z,6.00
2019-02-27T00:35:24.183Z,6.00
2019-02-27T00:37:54.289Z,6.00
2019-02-27T00:40:24.439Z,6.00
2019-02-27T00:42:55.983Z,6.00
2019-02-27T00:45:25.957Z,6.00
2019-02-27T00:47:56.032Z,6.00
2019-02-27T00:50:28.020Z,5.90
2019-02-27T00:52:58.204Z,5.90
2019-02-27T00:55:28.376Z,5.90
2019-02-27T00:57:58.531Z,5.90
2019-02-27T01:00:28.578Z,5.90
2019-02-27T01:02:58.825Z,6.00
2019-02-27T01:05:28.986Z,6.00
2019-02-27T01:07:59.107Z,6.00
2019-02-27T01:10:29.540Z,6.00
2019-02-27T01:12:59.650Z,5.90
2019-02-27T01:15:29.692Z,5.80
2019-02-27T01:17:59.891Z,5.80
2019-02-27T01:20:30.072Z,5.80
2019-02-27T01:23:00.192Z,5.70
2019-02-27T01:25:30.658Z,5.60
2019-02-27T01:28:01.717Z,5.60
2019-02-27T01:30:31.816Z,5.50
2019-02-27T01:33:04.198Z,5.50
2019-02-27T01:35:33.700Z,5.40
2019-02-27T01:38:05.301Z,5.40
2019-02-27T01:40:35.809Z,5.40
2019-02-27T01:43:06.498Z,5.40
2019-02-27T01:45:36.967Z,5.30
2019-02-27T01:48:09.196Z,5.20
2019-02-27T01:50:39.320Z,5.10
2019-02-27T01:53:10.344Z,5.00
2019-02-27T01:55:40.777Z,4.90
2019-02-27T01:58:10.860Z,4.90
2019-02-27T02:00:42.509Z,4.80
2019-02-27T02:03:14.356Z,4.70
2019-02-27T02:05:44.778Z,4.50
2019-02-27T02:08:14.944Z,4.50
2019-02-27T02:10:45.294Z,4.50
2019-02-27T02:13:43.119Z,4.50
2019-02-27T02:16:35.528Z,4.60
2019-02-27T02:19:41.073Z,4.60
2019-02-27T02:22:43.625Z,4.60
2019-02-27T02:25:55.131Z,4.50
2019-02-27T02:29:01.772Z,4.40
2019-02-27T02:31:59.571Z,4.30
2019-02-27T02:35:29.020Z,4.30
2019-02-27T02:38:25.632Z,4.20
2019-02-27T02:41:29.184Z,4.20
2019-02-27T02:44:25.684Z,4.10
2019-02-27T02:47:35.890Z,4.10
2019-02-27T02:50:36.622Z,4.00
2019-02-27T02:54:01.888Z,3.80
2019-02-27T02:57:18.340Z,3.80
2019-02-27T03:00:02.202Z,3.70
2019-02-27T03:03:03.472Z,3.60
2019-02-27T03:06:13.995Z,3.50
2019-02-27T03:09:16.933Z,3.30
2019-02-27T03:12:39.919Z,3.20
2019-02-27T03:15:38.313Z,3.20
2019-02-27T03:18:55.269Z,3.30
2019-02-27T03:21:52.611Z,3.40
2019-02-27T03:24:51.381Z,3.50
2019-02-27T03:27:57.169Z,3.50
2019-02-27T03:31:18.453Z,3.40
2019-02-27T03:34:14.196Z,3.30
2019-02-27T03:37:13.098Z,3.10
2019-02-27T03:40:29.020Z,3.10
2019-02-27T03:43:22.979Z,3.00
2019-02-27T03:46:06.181Z,3.00
2019-02-27T03:49:03.047Z,3.00
2019-02-27T03:51:51.889Z,2.90
2019-02-27T03:54:40.607Z,2.90
2019-02-27T03:57:54.865Z,2.70
2019-02-27T04:00:37.761Z,2.60
2019-02-27T04:04:03.989Z,2.60
2019-02-27T04:07:03.199Z,2.50
2019-02-27T04:09:33.512Z,2.50
2019-02-27T04:12:03.593Z,2.30
2019-02-27T04:14:40.440Z,2.30
2019-02-27T04:17:07.693Z,2.30
2019-02-27T04:19:40.144Z,2.30
2019-02-27T04:22:10.598Z,2.10
2019-02-27T04:24:41.807Z,2.00
2019-02-27T04:27:12.202Z,2.00
2019-02-27T04:29:42.293Z,1.90
2019-02-27T04:32:13.245Z,1.90
2019-02-27T04:34:43.596Z,1.90
2019-02-27T04:37:13.817Z,1.90
2019-02-27T04:39:44.079Z,1.90
2019-02-27T04:42:14.405Z,1.80
2019-02-27T04:44:44.568Z,1.70
2019-02-27T04:47:14.737Z,1.70
2019-02-27T04:49:44.926Z,1.70
2019-02-27T04:52:15.041Z,1.70
2019-02-27T04:54:45.219Z,1.60
2019-02-27T04:57:15.576Z,1.60
2019-02-27T04:59:45.768Z,1.60
2019-02-27T05:02:15.828Z,1.60
2019-02-27T05:04:46.181Z,1.60
2019-02-27T05:07:20.081Z,1.60
2019-02-27T05:09:49.077Z,1.80
2019-02-27T05:12:19.357Z,1.70
2019-02-27T05:14:49.746Z,1.60
2019-02-27T05:17:21.466Z,1.60
2019-02-27T05:19:52.085Z,1.60
2019-02-27T05:22:26.360Z,1.70
2019-02-27T05:24:54.639Z,2.00
2019-02-27T05:27:24.715Z,1.80
2019-02-27T05:29:54.910Z,1.70
2019-02-27T05:32:25.329Z,1.70
2019-02-27T05:34:56.907Z,1.70
2019-02-27T05:37:28.223Z,1.50
2019-02-27T05:39:58.306Z,1.40
2019-02-27T05:42:28.684Z,1.20
2019-02-27T05:44:58.771Z,4.30
2019-02-27T05:47:29.082Z,3.80
2019-02-27T05:50:00.675Z,4.80
2019-02-27T05:52:33.283Z,3.60
2019-02-27T05:55:06.423Z,2.40
2019-02-27T05:57:36.944Z,1.80
2019-02-27T06:00:11.025Z,1.50
2019-02-27T06:02:41.932Z,1.30
2019-02-27T06:05:13.199Z,1.10
2019-02-27T06:07:43.384Z,0.90
2019-02-27T06:10:14.595Z,0.90
2019-02-27T06:12:46.161Z,0.90
2019-02-27T06:15:17.587Z,0.80
2019-02-27T06:17:49.100Z,1.00
2019-02-27T06:20:20.043Z,1.10
2019-02-27T06:22:50.230Z,1.10
2019-02-27T06:25:23.646Z,1.20
2019-02-27T06:27:54.026Z,1.20
2019-02-27T06:30:24.121Z,1.30
2019-02-27T06:32:54.398Z,1.30
2019-02-27T06:35:24.606Z,1.40
2019-02-27T06:37:54.987Z,1.50
2019-02-27T06:40:25.059Z,1.60
2019-02-27T06:42:56.823Z,1.80
2019-02-27T06:45:28.386Z,1.90
2019-02-27T06:47:58.557Z,2.00
2019-02-27T06:50:28.675Z,2.00
2019-02-27T06:52:59.081Z,2.00
2019-02-27T06:55:29.528Z,2.00
2019-02-27T06:58:00.940Z,2.10
2019-02-27T07:00:35.936Z,2.10
2019-02-27T07:03:03.094Z,2.20
2019-02-27T07:05:33.334Z,2.20
2019-02-27T07:08:05.216Z,2.40
2019-02-27T07:10:35.330Z,2.50
2019-02-27T07:13:08.344Z,2.50
2019-02-27T07:15:38.594Z,2.90
2019-02-27T07:18:11.944Z,3.10
2019-02-27T07:20:42.333Z,3.30
2019-02-27T07:23:12.432Z,3.50
2019-02-27T07:25:42.875Z,3.60
2019-02-27T07:28:13.442Z,3.80
2019-02-27T07:30:43.720Z,3.80
2019-02-27T07:33:14.354Z,3.90
2019-02-27T07:35:44.616Z,4.10
2019-02-27T07:38:14.845Z,4.30
2019-02-27T07:40:45.157Z,4.40
2019-02-27T07:43:15.275Z,4.30
2019-02-27T07:45:46.139Z,4.50
2019-02-27T07:48:16.848Z,4.70
2019-02-27T07:50:49.332Z,4.90
2019-02-27T07:53:19.885Z,4.90
2019-02-27T07:55:50.090Z,5.10
2019-02-27T07:58:20.582Z,5.10
2019-02-27T08:00:50.788Z,5.40
2019-02-27T08:03:21.221Z,5.50
2019-02-27T08:05:52.713Z,5.60
2019-02-27T08:08:23.650Z,5.80
2019-02-27T08:10:54.551Z,6.00
2019-02-27T08:13:27.133Z,6.20
2019-02-27T08:15:57.972Z,6.30
2019-02-27T08:18:30.495Z,6.50
2019-02-27T08:21:01.308Z,6.50
2019-02-27T08:23:31.743Z,6.40
2019-02-27T08:26:05.110Z,6.80
2019-02-27T08:28:35.560Z,6.90
2019-02-27T08:31:05.687Z,7.00
2019-02-27T08:33:35.872Z,7.00
2019-02-27T08:36:06.042Z,7.30
2019-02-27T08:38:36.252Z,7.30
2019-02-27T08:41:06.640Z,7.20
2019-02-27T08:43:36.769Z,7.00
2019-02-27T08:46:07.001Z,7.10
2019-02-27T08:48:37.335Z,7.40
2019-02-27T08:51:08.862Z,7.40
2019-02-27T08:53:39.314Z,7.80
2019-02-27T08:56:09.969Z,7.60
2019-02-27T08:58:41.647Z,7.50
2019-02-27T09:01:12.506Z,8.00
2019-02-27T09:03:44.162Z,8.40
2019-02-27T09:06:17.778Z,8.70
2019-02-27T09:08:46.576Z,8.70
2019-02-27T09:11:17.897Z,8.90
2019-02-27T09:13:48.217Z,8.90
2019-02-27T09:16:19.066Z,8.60
2019-02-27T09:18:49.272Z,8.90
2019-02-27T09:21:19.490Z,9.20
2019-02-27T09:23:49.840Z,9.30
2019-02-27T09:26:20.035Z,9.40
2019-02-27T09:28:50.369Z,9.50
2019-02-27T09:31:20.845Z,9.20
2019-02-27T09:33:52.991Z,9.60
2019-02-27T09:36:22.983Z,9.80
2019-02-27T09:38:57.284Z,9.40
2019-02-27T09:41:25.060Z,9.10
2019-02-27T09:43:55.447Z,9.00
2019-02-27T09:46:25.994Z,9.10
2019-02-27T09:48:56.097Z,9.90
2019-02-27T09:51:26.210Z,10.00
2019-02-27T09:53:56.361Z,10.40
2019-02-27T09:56:29.116Z,10.40
2019-02-27T09:58:58.946Z,10.60
2019-02-27T10:01:29.270Z,10.90
2019-02-27T10:03:59.951Z,10.60
2019-02-27T10:06:30.399Z,10.90
2019-02-27T10:09:00.613Z,11.10
2019-02-27T10:11:32.448Z,11.00
2019-02-27T10:14:02.660Z,11.40
2019-02-27T10:16:34.860Z,11.50
2019-02-27T10:19:05.149Z,11.60
2019-02-27T10:21:35.308Z,11.80
2019-02-27T10:24:06.793Z,11.90
2019-02-27T10:26:37.253Z,12.00
2019-02-27T10:29:07.456Z,12.20
2019-02-27T10:31:37.671Z,12.70
2019-02-27T10:34:08.124Z,12.70
2019-02-27T10:36:39.270Z,12.80
2019-02-27T10:39:09.610Z,13.10
2019-02-27T10:41:40.298Z,13.20
2019-02-27T10:44:10.483Z,13.40
2019-02-27T10:46:40.591Z,13.30
2019-02-27T10:49:10.913Z,13.60
2019-02-27T10:51:41.482Z,13.60
2019-02-27T10:54:13.079Z,13.10
2019-02-27T10:56:43.236Z,13.30
2019-02-27T10:59:13.425Z,13.20
2019-02-27T11:01:43.577Z,13.70
2019-02-27T11:04:15.313Z,13.60
2019-02-27T11:06:45.780Z,14.20
2019-02-27T11:09:29.307Z,14.10
2019-02-27T11:11:59.471Z,14.60
2019-02-27T11:14:32.027Z,14.80
2019-02-27T11:17:02.558Z,14.70
2019-02-27T11:19:34.987Z,14.40
2019-02-27T11:22:05.479Z,14.40
2019-02-27T11:24:36.299Z,14.10
2019-02-27T11:27:06.895Z,14.50
2019-02-27T11:29:37.461Z,15.70
2019-02-27T11:32:08.067Z,15.60
2019-02-27T11:34:38.271Z,15.80
2019-02-27T11:37:12.858Z,15.50
2019-02-27T11:39:40.382Z,15.80
2019-02-27T11:42:10.525Z,16.30
2019-02-27T11:44:40.691Z,16.50
2019-02-27T11:47:11.487Z,16.60
2019-02-27T11:49:42.419Z,16.60
2019-02-27T11:52:12.914Z,16.70
2019-02-27T11:54:43.925Z,17.00
2019-02-27T11:57:14.386Z,17.00
2019-02-27T11:59:46.851Z,17.40
2019-02-27T12:02:16.428Z,17.40
2019-02-27T12:04:46.646Z,17.20
2019-02-27T12:07:17.474Z,17.90
2019-02-27T12:09:48.413Z,17.70
2019-02-27T12:12:22.475Z,18.50
2019-02-27T12:14:51.416Z,18.40
2019-02-27T12:17:23.245Z,18.10
2019-02-27T12:19:53.776Z,19.10
2019-02-27T12:22:23.921Z,19.10
2019-02-27T12:24:54.124Z,19.40
2019-02-27T12:27:47.993Z,19.50
2019-02-27T12:29:56.696Z,19.60
2019-02-27T12:32:27.067Z,19.40
2019-02-27T12:34:57.465Z,20.20
2019-02-27T12:37:28.514Z,20.20
2019-02-27T12:39:59.412Z,20.20
2019-02-27T12:42:37.095Z,20.50
2019-02-27T12:45:01.788Z,19.80
2019-02-27T12:47:31.960Z,20.40
2019-02-27T12:50:02.190Z,20.20
2019-02-27T12:52:32.659Z,20.60
2019-02-27T12:55:02.734Z,20.00
2019-02-27T12:57:34.388Z,21.40
2019-02-27T13:00:05.754Z,21.10
2019-02-27T13:02:38.972Z,20.50
2019-02-27T13:05:10.846Z,20.50
2019-02-27T13:07:42.144Z,21.20
2019-02-27T13:10:16.010Z,21.30
2019-02-27T13:12:46.154Z,22.30
2019-02-27T13:15:18.830Z,21.90
2019-02-27T13:17:48.933Z,22.50
2019-02-27T13:20:24.196Z,22.40
2019-02-27T13:22:54.361Z,22.30
2019-02-27T13:25:25.933Z,21.20
2019-02-27T13:27:56.177Z,21.80
2019-02-27T13:30:26.275Z,22.40
2019-02-27T13:33:00.642Z,22.90
2019-02-27T13:35:29.138Z,21.80
2019-02-27T13:38:00.029Z,21.30
2019-02-27T13:40:35.237Z,20.50
2019-02-27T13:43:02.366Z,20.00
2019-02-27T13:45:33.143Z,21.00
2019-02-27T13:48:05.898Z,22.00
2019-02-27T13:50:35.171Z,22.00
2019-02-27T13:53:05.787Z,22.10
2019-02-27T13:55:36.230Z,23.10
2019-02-27T13:58:06.415Z,22.70
2019-02-27T14:00:37.155Z,22.90
2019-02-27T14:03:12.106Z,23.10
2019-02-27T14:05:39.433Z,23.80
2019-02-27T14:08:10.040Z,24.00
2019-02-27T14:10:40.265Z,23.60
2019-02-27T14:13:10.361Z,23.20
2019-02-27T14:15:40.740Z,23.60
2019-02-27T14:18:13.444Z,23.60
2019-02-27T14:20:45.548Z,23.40
2019-02-27T14:23:15.883Z,23.30
2019-02-27T14:25:49.844Z,23.60
2019-02-27T14:28:20.994Z,23.20
2019-02-27T14:30:51.812Z,22.90
2019-02-27T14:33:22.171Z,23.90
2019-02-27T14:35:52.322Z,23.90
2019-02-27T14:38:22.918Z,23.60
2019-02-27T14:40:53.413Z,23.70
2019-02-27T14:43:26.907Z,23.70
2019-02-27T14:45:55.332Z,24.10
2019-02-27T14:48:25.550Z,24.10
2019-02-27T14:50:55.780Z,24.70
2019-02-27T14:53:26.242Z,24.20
2019-02-27T14:55:57.197Z,23.90
2019-02-27T14:58:27.390Z,24.40
2019-02-27T15:00:57.722Z,24.70
2019-02-27T15:03:30.065Z,24.60
2019-02-27T15:06:00.538Z,24.60
2019-02-27T15:08:30.737Z,24.50
2019-02-27T15:11:01.089Z,24.30
2019-02-27T15:13:31.457Z,24.40
2019-02-27T15:16:01.549Z,24.20
2019-02-27T15:18:32.290Z,24.10
2019-02-27T15:21:03.895Z,23.80
2019-02-27T15:23:34.303Z,24.00
2019-02-27T15:26:06.525Z,24.20
2019-02-27T15:28:36.709Z,24.30
2019-02-27T15:31:07.034Z,24.60
2019-02-27T15:33:39.041Z,24.10
2019-02-27T15:36:09.409Z,24.10
2019-02-27T15:38:39.631Z,24.10
2019-02-27T15:41:09.974Z,24.40
2019-02-27T15:43:40.383Z,24.80
2019-02-27T15:46:10.637Z,25.00
2019-02-27T15:48:41.548Z,24.60
2019-02-27T15:51:11.817Z,24.30
2019-02-27T15:53:42.343Z,23.90
2019-02-27T15:56:12.625Z,23.80
2019-02-27T15:58:42.891Z,23.90
2019-02-27T16:01:13.407Z,24.00
2019-02-27T16:03:46.572Z,24.00
2019-02-27T16:06:18.428Z,23.40
2019-02-27T16:08:48.607Z,23.20
2019-02-27T16:11:18.704Z,22.70
2019-02-27T16:13:48.974Z,22.50
2019-02-27T16:16:23.310Z,22.70
2019-02-27T16:18:52.495Z,22.60
2019-02-27T16:21:23.619Z,22.90
2019-02-27T16:23:54.845Z,22.70
2019-02-27T16:26:27.185Z,22.60
2019-02-27T16:28:57.103Z,22.40
2019-02-27T16:31:27.611Z,21.90
2019-02-27T16:33:58.512Z,21.50
2019-02-27T16:36:36.148Z,20.80
2019-02-27T16:39:06.962Z,20.50
2019-02-27T16:41:35.968Z,20.10
2019-02-27T16:44:06.207Z,19.80
2019-02-27T16:46:43.502Z,19.10
2019-02-27T16:49:10.148Z,18.40
2019-02-27T16:51:41.097Z,17.60
2019-02-27T16:54:12.882Z,16.80
2019-02-27T16:56:46.282Z,16.20
2019-02-27T16:59:14.866Z,15.60
2019-02-27T17:01:45.086Z,15.30
2019-02-27T17:04:15.276Z,15.70
2019-02-27T17:06:45.810Z,15.60
2019-02-27T17:09:15.937Z,15.50
2019-02-27T17:11:46.179Z,15.20
2019-02-27T17:14:17.853Z,14.60
2019-02-27T17:16:48.062Z,14.20
2019-02-27T17:19:18.830Z,13.90
2019-02-27T17:21:49.115Z,13.60
2019-02-27T17:24:21.792Z,13.30
2019-02-27T17:26:51.151Z,13.00
2019-02-27T17:29:25.490Z,12.90
2019-02-27T17:31:55.785Z,12.60
2019-02-27T17:34:25.231Z,12.30
2019-02-27T17:36:55.414Z,12.00
2019-02-27T17:39:28.930Z,11.60
2019-02-27T17:41:57.807Z,11.30
2019-02-27T17:44:28.150Z,10.80
2019-02-27T17:47:00.314Z,10.60
2019-02-27T17:49:30.976Z,10.40
2019-02-27T17:52:11.080Z,10.20
2019-02-27T17:54:35.471Z,10.00
2019-02-27T17:57:06.118Z,9.80
2019-02-27T17:59:39.165Z,9.70
2019-02-27T18:02:08.418Z,9.70
2019-02-27T18:04:38.966Z,9.70
2019-02-27T18:07:09.798Z,9.50
2019-02-27T18:09:40.488Z,9.40
2019-02-27T18:12:11.036Z,9.40
2019-02-27T18:14:45.576Z,9.20
2019-02-27T18:17:14.826Z,9.00
2019-02-27T18:19:47.359Z,8.90
2019-02-27T18:22:17.526Z,8.90
2019-02-27T18:24:47.841Z,8.80
2019-02-27T18:27:17.920Z,8.70
2019-02-27T18:29:48.393Z,8.70
2019-02-27T18:32:18.680Z,8.60
2019-02-27T18:34:49.050Z,8.50
2019-02-27T18:37:19.794Z,8.40
2019-02-27T18:39:50.235Z,8.20
2019-02-27T18:42:21.393Z,8.10
2019-02-27T18:44:52.348Z,8.10
2019-02-27T18:47:22.473Z,8.00
2019-02-27T18:49:53.013Z,8.80
2019-02-27T18:52:23.362Z,8.50
2019-02-27T18:54:54.716Z,8.20
2019-02-27T18:57:25.458Z,7.90
2019-02-27T18:59:57.420Z,7.70
2019-02-27T19:02:28.732Z,7.60
2019-02-27T19:04:59.555Z,7.40
2019-02-27T19:07:29.765Z,7.30
2019-02-27T19:10:00.273Z,7.10
2019-02-27T19:12:30.544Z,6.80
2019-02-27T19:15:00.675Z,6.70
2019-02-27T19:17:33.085Z,6.60
2019-02-27T19:20:03.552Z,6.60
2019-02-27T19:22:33.761Z,6.60
2019-02-27T19:25:05.308Z,6.70
2019-02-27T19:27:37.566Z,6.60
2019-02-27T19:30:09.838Z,6.60
2019-02-27T19:32:40.303Z,6.60
2019-02-27T19:35:10.903Z,6.70
2019-02-27T19:37:41.805Z,6.70
2019-02-27T19:40:14.735Z,6.60
2019-02-27T19:43:01.766Z,6.50
2019-02-27T19:45:32.033Z,6.40
2019-02-27T19:48:02.604Z,6.30
2019-02-27T19:50:32.697Z,6.30
2019-02-27T19:53:06.565Z,6.30
2019-02-27T19:55:34.897Z,6.30
2019-02-27T19:58:05.898Z,6.40
2019-02-27T20:00:37.934Z,6.40
2019-02-27T20:03:08.439Z,6.40
2019-02-27T20:05:38.591Z,6.40
2019-02-27T20:08:10.919Z,6.40
2019-02-27T20:10:44.074Z,6.30
2019-02-27T20:13:14.515Z,6.30
2019-02-27T20:15:45.581Z,6.10
2019-02-27T20:18:16.874Z,6.00
2019-02-27T20:20:47.775Z,5.80
2019-02-27T20:23:18.271Z,5.80
2019-02-27T20:25:48.648Z,5.70
2019-02-27T20:28:19.466Z,5.60
2019-02-27T20:30:49.775Z,5.60
2019-02-27T20:33:22.274Z,5.70
2019-02-27T20:35:52.403Z,5.70
2019-02-27T20:38:24.271Z,5.70
2019-02-27T20:40:55.082Z,5.80
2019-02-27T20:43:29.121Z,5.80
2019-02-27T20:45:57.413Z,5.60
2019-02-27T20:48:27.851Z,5.40
2019-02-27T20:50:58.084Z,5.30
2019-02-27T20:53:29.816Z,5.30
2019-02-27T20:56:03.052Z,5.30
2019-02-27T20:58:32.272Z,5.30
2019-02-27T21:01:03.065Z,5.30
2019-02-27T21:03:33.414Z,5.30
2019-02-27T21:06:03.600Z,5.30
2019-02-27T21:08:36.192Z,5.30
2019-02-27T21:11:06.205Z,5.30
2019-02-27T21:13:36.691Z,5.20
2019-02-27T21:16:09.437Z,5.20
2019-02-27T21:18:39.151Z,5.10
2019-02-27T21:21:09.731Z,5.00
2019-02-27T21:23:40.154Z,5.00
2019-02-27T21:26:10.747Z,4.90
2019-02-27T21:28:41.259Z,4.90
2019-02-27T21:31:11.539Z,4.90
2019-02-27T21:33:42.422Z,5.00
2019-02-27T21:36:14.026Z,5.00
2019-02-27T21:38:44.194Z,4.90
2019-02-27T21:41:15.840Z,4.90
2019-02-27T21:43:48.469Z,4.90
2019-02-27T21:46:19.034Z,4.90
2019-02-27T21:48:49.751Z,4.80
2019-02-27T21:51:21.767Z,4.80
2019-02-27T21:53:51.996Z,4.70
2019-02-27T21:56:22.172Z,4.70
2019-02-27T21:58:52.573Z,4.50
2019-02-27T22:01:23.124Z,4.40
2019-02-27T22:03:53.235Z,4.40
2019-02-27T22:06:24.681Z,4.30
2019-02-27T22:08:57.119Z,4.20
2019-02-27T22:11:27.837Z,4.20
2019-02-27T22:14:00.071Z,4.20
2019-02-27T22:16:31.483Z,4.20
2019-02-27T22:19:02.075Z,4.20
2019-02-27T22:21:34.245Z,4.10
2019-02-27T22:24:04.285Z,4.00
2019-02-27T22:26:37.398Z,4.00
2019-02-27T22:29:06.374Z,4.00
2019-02-27T22:31:40.278Z,3.90
2019-02-27T22:34:13.093Z,3.90
2019-02-27T22:36:44.852Z,3.90
2019-02-27T22:39:15.590Z,3.80
2019-02-27T22:41:45.948Z,3.80
2019-02-27T22:44:16.135Z,3.80
2019-02-27T22:46:47.757Z,3.80
2019-02-27T22:49:18.244Z,3.90
2019-02-27T22:51:48.488Z,3.90
2019-02-27T22:54:19.685Z,3.90
2019-02-27T22:56:51.585Z,3.90
2019-02-27T22:59:22.900Z,3.90
2019-02-27T23:01:54.619Z,3.80
2019-02-27T23:04:26.141Z,3.70
2019-02-27T23:06:56.249Z,3.60
2019-02-27T23:09:26.579Z,3.60
2019-02-27T23:11:57.012Z,3.50
2019-02-27T23:14:27.304Z,3.30
2019-02-27T23:16:57.490Z,3.30
2019-02-27T23:19:29.299Z,3.20
2019-02-27T23:21:59.473Z,3.10
2019-02-27T23:24:29.745Z,3.10
2019-02-27T23:27:00.363Z,3.00
2019-02-27T23:29:30.588Z,3.00
2019-02-27T23:32:00.707Z,3.00
2019-02-27T23:34:30.893Z,3.00
2019-02-27T23:37:01.193Z,3.00
2019-02-27T23:39:32.052Z,2.90
2019-02-27T23:42:02.234Z,2.90
2019-02-27T23:44:32.399Z,2.90
2019-02-27T23:47:02.491Z,2.90
2019-02-27T23:49:32.593Z,2.90
2019-02-27T23:52:02.784Z,2.80
2019-02-27T23:54:35.949Z,2.70
2019-02-27T23:57:04.894Z,2.60
2019-02-27T23:59:35.593Z,2.60
